Terminal Aerodrome Forecast
Issued by NWS Portland, OR

Home | Current Version | Previous Version | Text Only | Print | Product List | Glossary On
Versions: 1 2 3 4 5 6 7 8 9 10 11 12 13 14 15 16 17
000
FTUS46 KPQR 250534
TAFSLE
TAF
KSLE 250534Z 2506/2606 03006KT 6SM BR SCT006 OVC015
     FM250800 VRB03KT 5SM BR SCT012 BKN018 BKN100
     FM251300 17009KT 3SM BR SCT050 BKN100
     FM251800 17015G25KT 5SM -RA OVC050
     FM252000 19025G35KT P6SM -RA SCT025 OVC050=

USA.gov is the U.S. government's official web portal to all federal, state and local government web resources and services.